Time;durP1;ratioP1;P1;durP2;ratioP2;P2;SDS_P1;SDS_P2;PMS_P1;PMS_P2;Temp;Humidity;BMP_temperature;BMP_pressure;BME280_temperature;BME280_humidity;BME280_pressure;Samples;Min_cycle;Max_cycle;Signal;HPM_P1;HPM_P2
2023/02/24 00:04:57;;;;;;;62.30;31.68;;;;;;;6.78;100.00;99877.94;5181274;55;1140863;-73
2023/02/24 00:10:03;;;;;;;60.30;34.23;;;;;;;6.77;100.00;99874.95;5192911;55;1140772;-75
2023/02/24 00:15:10;;;;;;;56.07;29.30;;;;;;;6.74;100.00;99870.74;5172514;55;1140915;-70
2023/02/24 00:20:17;;;;;;;51.27;26.67;;;;;;;6.72;100.00;99863.47;5137071;56;1140860;-71
2023/02/24 00:25:23;;;;;;;50.40;29.00;;;;;;;6.70;100.00;99857.02;5131898;56;1140915;-72
2023/02/24 00:30:31;;;;;;;51.58;27.52;;;;;;;6.70;100.00;99851.75;5095928;55;1141152;-76
2023/02/24 00:35:37;;;;;;;44.97;26.93;;;;;;;6.72;100.00;99846.86;5096024;56;1141407;-72
2023/02/24 00:40:46;;;;;;;50.30;26.70;;;;;;;6.71;100.00;99839.45;5116047;56;1140886;-70
2023/02/24 00:45:52;;;;;;;45.53;24.87;;;;;;;6.71;100.00;99832.89;5095961;56;1140986;-69
2023/02/24 00:51:01;;;;;;;42.85;23.05;;;;;;;6.68;100.00;99825.22;5095905;55;1140898;-71
2023/02/24 00:56:15;;;;;;;38.27;21.50;;;;;;;6.67;100.00;99820.91;5116092;56;1141136;-74
2023/02/24 01:01:21;;;;;;;30.77;19.23;;;;;;;6.64;100.00;99812.77;5077697;56;1141035;-73
2023/02/24 01:06:29;;;;;;;41.50;21.70;;;;;;;6.64;100.00;99808.83;5036141;56;1140909;-72
2023/02/24 11:10:57;;;;;;;10.53;2.65;;;;;;;2.60;100.00;99363.34;5172921;54;46986;-68
2023/02/24 11:21:27;;;;;;;9.87;2.00;;;;;;;2.67;100.00;99339.84;4978379;56;1136910;-67
2023/02/24 11:26:40;;;;;;;4.73;1.60;;;;;;;2.74;100.00;99326.77;5066225;56;1134714;-66
2023/02/24 11:31:54;;;;;;;10.00;3.57;;;;;;;2.84;100.00;99320.48;5068691;56;1134789;-67
2023/02/24 11:37:47;;;;;;;19.23;6.40;;;;;;;2.94;100.00;99302.42;5050557;56;1136954;-66
2023/02/24 11:43:12;;;;;;;11.80;2.80;;;;;;;3.01;100.00;99289.34;4983472;56;1137132;-64
2023/02/24 11:48:41;;;;;;;8.37;1.90;;;;;;;3.06;100.00;99282.86;4928500;57;1136869;-67
2023/02/24 11:53:56;;;;;;;15.38;4.78;;;;;;;3.08;100.00;99270.53;5055864;56;1134736;-65
2023/02/24 11:59:26;;;;;;;9.07;2.93;;;;;;;3.11;100.00;99270.34;5076538;55;1136692;-67
2023/02/24 12:04:51;;;;;;;6.37;1.72;;;;;;;3.16;100.00;99256.97;5097470;55;1135010;-66
2023/02/24 12:10:19;;;;;;;7.07;2.60;;;;;;;3.21;100.00;99251.45;5134288;55;1135034;-64
2023/02/24 12:15:37;;;;;;;10.00;3.17;;;;;;;3.23;100.00;99245.63;5043691;56;1134813;-68
2023/02/24 12:21:16;;;;;;;11.43;2.77;;;;;;;3.28;100.00;99236.55;4981065;56;1136712;-65
2023/02/24 12:26:26;;;;;;;5.27;2.20;;;;;;;3.39;100.00;99223.57;5035464;56;1136932;-67
2023/02/24 12:32:00;;;;;;;6.33;1.95;;;;;;;3.47;100.00;99217.36;5041610;56;1134772;-64
2023/02/24 12:37:15;;;;;;;;;;;;;;;3.56;100.00;99207.20;5037491;56;1135113;-67
2023/02/24 12:42:43;;;;;;;10.33;2.50;;;;;;;3.53;100.00;99186.86;5100470;56;972105;-65
2023/02/24 12:48:16;;;;;;;7.70;2.40;;;;;;;3.58;100.00;99185.70;5067979;56;1134777;-65
2023/02/24 12:53:47;;;;;;;10.07;2.93;;;;;;;3.62;100.00;99182.78;5060987;56;1134742;-67
2023/02/24 12:58:58;;;;;;;18.30;5.70;;;;;;;3.66;100.00;99179.48;5046618;56;1136779;-66
2023/02/24 13:04:31;;;;;;;8.93;2.58;;;;;;;3.67;100.00;99164.13;5057820;55;1136838;-65
2023/02/24 13:10:22;;;;;;;8.64;2.22;;;;;;;3.62;100.00;99157.95;5088053;55;1135082;-65
2023/02/24 13:15:32;;;;;;;7.50;3.63;;;;;;;3.68;100.00;99150.95;5006232;56;1134765;-68
2023/02/24 13:20:41;;;;;;;12.37;4.45;;;;;;;3.68;100.00;99144.89;5098596;55;1134745;-66
2023/02/24 13:25:53;;;;;;;7.37;2.23;;;;;;;3.69;100.00;99126.48;5109557;56;1136791;-67
2023/02/24 13:31:05;;;;;;;7.60;2.10;;;;;;;3.66;100.00;99122.80;5162741;55;1134571;-64
2023/02/24 13:36:24;;;;;;;4.67;1.77;;;;;;;3.65;100.00;99111.15;5116051;55;1134599;-65
2023/02/24 13:41:36;;;;;;;14.60;4.67;;;;;;;3.70;100.00;99103.78;5097424;56;1134889;-65
2023/02/24 13:47:10;;;;;;;18.67;2.53;;;;;;;3.76;100.00;99093.73;5087315;55;1137000;-66
2023/02/24 13:52:58;;;;;;;38.53;13.60;;;;;;;3.84;100.00;99082.70;5071766;56;1136808;-66
2023/02/24 13:58:20;;;;;;;7.90;2.17;;;;;;;3.87;100.00;99078.09;5101475;55;1139043;-66
2023/02/24 14:03:29;;;;;;;5.77;2.43;;;;;;;3.90;100.00;99073.11;5086479;56;1134972;-67
2023/02/24 14:08:39;;;;;;;10.90;2.57;;;;;;;3.92;100.00;99065.99;5083041;56;1134815;-69
2023/02/24 14:13:54;;;;;;;18.10;4.08;;;;;;;3.93;100.00;99056.37;5093777;55;1137137;-70
2023/02/24 14:19:02;;;;;;;15.63;2.90;;;;;;;3.94;100.00;99056.73;5051587;55;1136970;-67
2023/02/24 14:24:13;;;;;;;19.32;4.22;;;;;;;3.97;100.00;99056.52;5065286;55;1136794;-69
2023/02/24 14:29:26;;;;;;;13.73;2.10;;;;;;;3.99;100.00;99046.27;5078707;56;1136775;-68
2023/02/24 14:34:34;;;;;;;15.25;3.02;;;;;;;3.98;100.00;99043.77;5061467;56;1136758;-68
2023/02/24 14:39:39;;;;;;;65.17;15.43;;;;;;;3.98;100.00;99028.07;5053232;56;1136741;-69
2023/02/24 14:44:49;;;;;;;42.10;8.98;;;;;;;3.99;100.00;99027.13;5077780;56;1138828;-69
2023/02/24 14:50:01;;;;;;;22.93;4.13;;;;;;;3.98;100.00;99024.98;5053213;56;1137177;-66
2023/02/24 14:55:32;;;;;;;19.98;3.67;;;;;;;3.99;100.00;99010.13;5073082;55;1137292;-67
2023/02/24 15:00:42;;;;;;;17.62;4.20;;;;;;;3.98;100.00;98999.30;5078835;55;1136821;-69
2023/02/24 15:05:52;;;;;;;16.33;3.90;;;;;;;4.01;100.00;98992.06;5085680;55;1137010;-67
2023/02/24 15:10:58;;;;;;;11.20;2.62;;;;;;;4.01;100.00;98979.45;5084160;56;1136749;-68
2023/02/24 15:16:12;;;;;;;18.25;3.60;;;;;;;3.99;100.00;98973.50;5085596;56;1137203;-68
2023/02/24 15:21:25;;;;;;;71.17;29.80;;;;;;;4.03;100.00;98971.86;5092551;56;1136957;-68
2023/02/24 15:26:34;;;;;;;54.50;25.97;;;;;;;4.04;100.00;98960.92;5072920;55;1138967;-68
2023/02/24 15:31:42;;;;;;;23.37;3.83;;;;;;;4.03;100.00;98951.41;5076117;56;1139085;-68
2023/02/24 15:36:50;;;;;;;12.17;4.43;;;;;;;3.95;100.00;98948.55;5099732;55;1136813;-66
2023/02/24 15:42:08;;;;;;;7.57;2.87;;;;;;;3.85;100.00;98935.31;5073703;56;1136728;-68
2023/02/24 15:47:24;;;;;;;15.93;4.40;;;;;;;3.81;100.00;98927.36;5120702;55;1134672;-66
2023/02/24 15:52:30;;;;;;;17.30;8.60;;;;;;;3.73;100.00;98918.77;5109090;56;1136867;-69
2023/02/24 15:57:36;;;;;;;27.37;7.53;;;;;;;3.74;100.00;98911.76;5096129;56;1136807;-66
2023/02/24 16:02:42;;;;;;;36.42;12.58;;;;;;;3.72;100.00;98907.95;5115409;55;1136770;-69
2023/02/24 16:07:50;;;;;;;28.73;8.17;;;;;;;3.72;100.00;98905.34;5110982;55;1139286;-67
2023/02/24 16:13:00;;;;;;;69.47;31.17;;;;;;;3.69;100.00;98893.80;5055619;55;1136846;-69
2023/02/24 16:18:17;;;;;;;18.82;9.78;;;;;;;3.71;100.00;98891.06;5038913;56;1138858;-67
2023/02/24 16:23:17;;;;;;;15.37;5.80;;;;;;;3.73;100.00;98882.64;5103500;55;1137159;-66
2023/02/24 16:28:25;;;;;;;25.47;11.47;;;;;;;3.73;100.00;98882.16;5026114;56;1136845;-67
2023/02/24 16:33:32;;;;;;;58.13;20.68;;;;;;;3.74;100.00;98877.77;5017851;57;1139040;-68
2023/02/24 16:38:38;;;;;;;24.47;6.28;;;;;;;3.74;100.00;98871.23;5103438;56;1139113;-68
2023/02/24 16:43:43;;;;;;;19.85;6.05;;;;;;;3.73;100.00;98862.55;5099779;56;1136714;-68
2023/02/24 16:48:52;;;;;;;10.27;3.93;;;;;;;3.75;100.00;98863.28;5099772;55;1136918;-66
2023/02/24 16:53:58;;;;;;;32.33;19.92;;;;;;;3.76;100.00;98854.48;5099353;56;1136877;-66
2023/02/24 16:59:04;;;;;;;16.57;9.40;;;;;;;3.76;100.00;98849.25;5119240;56;1138721;-66
2023/02/24 17:04:12;;;;;;;11.67;4.70;;;;;;;3.77;100.00;98846.17;5094216;56;1136829;-66
2023/02/24 17:09:17;;;;;;;26.27;12.53;;;;;;;3.80;100.00;98838.92;5099465;55;1136711;-69
2023/02/24 17:14:23;;;;;;;19.93;11.13;;;;;;;3.80;100.00;98831.09;5119357;55;1139019;-68
2023/02/24 17:19:29;;;;;;;16.73;8.83;;;;;;;3.82;100.00;98829.63;5081038;56;1138901;-67
2023/02/24 17:24:36;;;;;;;26.90;9.83;;;;;;;3.84;100.00;98823.34;5053306;55;1136798;-67
2023/02/24 17:29:41;;;;;;;13.35;5.60;;;;;;;3.83;100.00;98825.59;5119623;56;1136840;-67
2023/02/24 17:34:48;;;;;;;21.90;6.37;;;;;;;3.82;100.00;98819.17;5099209;55;1136982;-66
2023/02/24 17:39:53;;;;;;;16.13;5.87;;;;;;;3.83;100.00;98808.59;5054564;55;1136918;-66
2023/02/24 17:44:59;;;;;;;12.33;4.45;;;;;;;3.80;100.00;98805.41;5117130;55;1136908;-67
2023/02/24 17:50:06;;;;;;;11.93;5.27;;;;;;;3.76;100.00;98798.74;5127176;55;1136974;-70
2023/02/24 17:55:12;;;;;;;18.63;7.90;;;;;;;3.76;100.00;98789.59;5066555;55;1136760;-67
2023/02/24 18:00:19;;;;;;;12.13;4.10;;;;;;;3.74;100.00;98786.27;5091778;55;1136711;-68
2023/02/24 18:05:24;;;;;;;11.90;4.70;;;;;;;3.73;100.00;98774.97;5138016;55;1136607;-66
2023/02/24 18:10:30;;;;;;;13.10;2.40;;;;;;;3.67;100.00;98773.29;5120332;55;1136694;-67
2023/02/24 18:15:38;;;;;;;55.27;15.53;;;;;;;3.61;100.00;98766.77;5051181;56;1136759;-67
2023/02/24 18:20:45;;;;;;;8.13;2.67;;;;;;;3.56;100.00;98755.83;5065592;56;1139041;-70
2023/02/24 18:25:51;;;;;;;6.63;2.40;;;;;;;3.52;100.00;98755.22;5130378;55;1134707;-66
2023/02/24 18:30:57;;;;;;;2.77;1.87;;;;;;;3.48;100.00;98745.98;5157458;55;1135068;-68
2023/02/24 18:36:04;;;;;;;9.37;2.60;;;;;;;3.45;100.00;98749.30;5116106;56;1134741;-68
2023/02/24 18:41:14;;;;;;;7.40;2.80;;;;;;;3.41;100.00;98743.94;5136839;56;1134853;-68
2023/02/24 18:46:20;;;;;;;5.60;2.30;;;;;;;3.38;100.00;98746.78;5126489;55;1134597;-68
2023/02/24 18:51:27;;;;;;;5.47;2.60;;;;;;;3.35;100.00;98739.20;5154203;55;1134532;-67
2023/02/24 18:56:35;;;;;;;9.95;2.55;;;;;;;3.32;100.00;98730.28;5150632;55;1134900;-69
2023/02/24 19:01:41;;;;;;;4.87;2.77;;;;;;;3.27;100.00;98718.87;5113117;56;1134753;-70
2023/02/24 19:06:47;;;;;;;3.00;2.37;;;;;;;3.26;100.00;98719.81;5116898;56;1134705;-66
2023/02/24 19:11:54;;;;;;;5.37;3.55;;;;;;;3.23;100.00;98708.28;5130183;55;1134831;-70
2023/02/24 19:17:00;;;;;;;8.57;3.00;;;;;;;3.27;100.00;98702.36;5140326;55;1134675;-67
2023/02/24 19:22:06;;;;;;;5.03;2.07;;;;;;;3.23;100.00;98709.59;5106728;55;1134780;-72
2023/02/24 19:27:12;;;;;;;11.57;5.67;;;;;;;3.23;100.00;98687.86;5081118;55;1134681;-69
2023/02/24 19:32:18;;;;;;;6.73;3.23;;;;;;;3.25;100.00;98683.36;5068754;55;1136793;-69
2023/02/24 19:37:24;;;;;;;5.20;3.30;;;;;;;3.24;100.00;98679.91;5004484;56;1134717;-66
2023/02/24 19:42:30;;;;;;;16.23;7.30;;;;;;;3.23;100.00;98670.41;5041341;55;1134713;-69
2023/02/24 19:47:36;;;;;;;10.37;3.90;;;;;;;3.25;100.00;98670.30;5011140;56;1226294;-67
2023/02/24 19:52:42;;;;;;;8.60;3.53;;;;;;;3.22;100.00;98661.38;5082002;54;1136771;-68
2023/02/24 19:57:50;;;;;;;7.87;3.85;;;;;;;3.17;100.00;98656.06;5091023;56;1134748;-70
2023/02/24 20:02:55;;;;;;;8.45;4.45;;;;;;;3.15;100.00;98660.56;5101924;56;1134669;-68
2023/02/24 20:08:01;;;;;;;10.80;3.87;;;;;;;3.09;100.00;98652.36;5060558;56;1134658;-71
2023/02/24 20:13:07;;;;;;;5.70;3.67;;;;;;;3.06;100.00;98649.50;5042225;55;1136677;-68
2023/02/24 20:18:13;;;;;;;14.67;7.20;;;;;;;3.02;100.00;98636.34;5105344;55;1134969;-68
2023/02/24 20:23:19;;;;;;;17.87;6.93;;;;;;;3.01;100.00;98629.93;5045241;56;1136941;-68
2023/02/24 20:28:25;;;;;;;6.17;3.60;;;;;;;3.03;100.00;98633.26;5075363;55;1136636;-69
2023/02/24 20:33:31;;;;;;;7.50;3.27;;;;;;;3.04;100.00;98628.39;5055305;55;1134758;-71
2023/02/24 20:38:38;;;;;;;2.70;2.50;;;;;;;3.00;100.00;98628.27;5142946;55;1134810;-70
2023/02/24 20:43:43;;;;;;;3.33;2.55;;;;;;;2.97;100.00;98621.49;5039858;55;1134704;-71
2023/02/24 20:48:50;;;;;;;6.78;3.35;;;;;;;2.96;100.00;98613.30;5046573;56;1134794;-68
2023/02/24 20:53:57;;;;;;;10.63;4.00;;;;;;;2.95;100.00;98605.11;5060287;55;1134850;-67
2023/02/24 20:59:10;;;;;;;7.27;3.10;;;;;;;2.97;100.00;98606.30;5080339;56;1136855;-71
2023/02/24 21:04:19;;;;;;;5.47;3.23;;;;;;;2.94;100.00;98599.53;5066651;56;1134565;-70
2023/02/24 21:09:26;;;;;;;10.70;3.57;;;;;;;2.94;100.00;98594.78;5055436;55;1134542;-67
2023/02/24 21:14:33;;;;;;;4.23;2.63;;;;;;;2.92;100.00;98583.14;5058758;56;1136871;-70
2023/02/24 21:19:39;;;;;;;5.20;2.90;;;;;;;2.89;100.00;98580.80;5060074;55;1134757;-68
2023/02/24 21:24:45;;;;;;;3.42;3.05;;;;;;;2.88;100.00;98575.69;5060968;56;1134847;-68
2023/02/24 21:29:52;;;;;;;4.95;3.20;;;;;;;2.87;100.00;98568.33;5050381;55;1134785;-69
2023/02/24 21:34:58;;;;;;;6.33;3.63;;;;;;;2.81;100.00;98569.63;5055643;55;1134761;-67
2023/02/24 21:40:09;;;;;;;7.15;3.52;;;;;;;2.82;100.00;98560.01;5136211;54;1134686;-69
2023/02/24 21:45:13;;;;;;;5.90;3.40;;;;;;;2.80;100.00;98552.30;5129434;55;1134815;-71
2023/02/24 21:50:20;;;;;;;7.03;3.23;;;;;;;2.76;100.00;98544.81;5125670;56;1134659;-70
2023/02/24 21:55:26;;;;;;;7.70;3.27;;;;;;;2.74;100.00;98537.13;5037418;56;1134720;-73
2023/02/24 22:00:32;;;;;;;7.00;3.37;;;;;;;2.76;100.00;98527.37;4956231;57;1134702;-70
2023/02/24 22:05:38;;;;;;;7.40;4.10;;;;;;;2.78;100.00;98525.95;5033864;55;1134798;-69
2023/02/24 22:10:43;;;;;;;7.30;4.60;;;;;;;2.79;100.00;98518.00;5071114;56;1134565;-69
2023/02/24 22:15:49;;;;;;;9.55;3.90;;;;;;;2.86;100.00;98505.31;5070775;56;1134740;-67
2023/02/24 22:20:55;;;;;;;5.28;4.28;;;;;;;2.81;100.00;98504.36;5107872;55;1134644;-68
2023/02/24 22:26:06;;;;;;;7.77;3.70;;;;;;;2.79;100.00;98506.25;5143023;55;1134744;-71
2023/02/24 22:31:15;;;;;;;5.47;4.03;;;;;;;2.72;100.00;98488.59;5138274;55;1134645;-69
2023/02/24 22:36:25;;;;;;;12.17;5.20;;;;;;;2.72;100.00;98488.59;5101928;55;1134594;-68
2023/02/24 22:41:34;;;;;;;13.03;5.03;;;;;;;2.74;100.00;98477.56;5101632;55;1136726;-66
2023/02/24 22:46:39;;;;;;;9.68;4.62;;;;;;;2.75;100.00;98471.40;5121720;56;1139257;-70
2023/02/24 22:51:45;;;;;;;5.80;3.85;;;;;;;2.76;100.00;98469.11;5102052;56;1134662;-71
2023/02/24 22:56:51;;;;;;;7.23;4.10;;;;;;;2.73;100.00;98467.60;5101958;56;1134720;-68
2023/02/24 23:01:58;;;;;;;4.95;4.10;;;;;;;2.71;100.00;98470.80;5075007;55;1134725;-73
2023/02/24 23:07:05;;;;;;;5.30;4.00;;;;;;;2.69;100.00;98469.25;5121604;56;1134674;-70
2023/02/24 23:12:14;;;;;;;10.20;4.47;;;;;;;2.66;100.00;98462.96;5101666;56;1134550;-68
2023/02/24 23:17:20;;;;;;;8.37;5.37;;;;;;;2.63;100.00;98463.20;5101815;56;1136864;-67
2023/02/24 23:22:26;;;;;;;7.10;5.40;;;;;;;2.60;100.00;98459.04;5200706;55;1134614;-71
2023/02/24 23:27:32;;;;;;;9.27;4.53;;;;;;;2.61;100.00;98451.56;5019226;56;1134795;-72
2023/02/24 23:32:39;;;;;;;156.43;43.83;;;;;;;2.57;100.00;98446.26;5020846;57;1134817;-69
2023/02/24 23:37:46;;;;;;;44.63;10.15;;;;;;;2.58;100.00;98436.65;5022466;56;1141102;-70
2023/02/24 23:42:52;;;;;;;43.83;8.90;;;;;;;2.62;100.00;98436.74;5051975;55;1138929;-71
2023/02/24 23:47:58;;;;;;;24.57;7.03;;;;;;;2.62;100.00;98432.35;5071218;56;1136930;-70
2023/02/24 23:53:05;;;;;;;21.05;7.40;;;;;;;2.61;100.00;98427.25;5071255;56;1136793;-71
2023/02/24 23:58:10;;;;;;;35.00;9.37;;;;;;;2.60;100.00;98421.70;5091005;56;1136812;-70
